Time;durP1;ratioP1;P1;durP2;ratioP2;P2;SDS_P1;SDS_P2;PMS_P1;PMS_P2;Temp;Humidity;BMP_temperature;BMP_pressure;BME280_temperature;BME280_humidity;BME280_pressure;Samples;Min_cycle;Max_cycle;Signal;HPM_P1;HPM_P2
2023/07/29 00:00:41;;;;;;;2.33;1.52;;;;;;;14.71;82.03;99596.06;5047679;28;20022;-57
2023/07/29 00:03:06;;;;;;;3.35;1.85;;;;;;;14.75;81.74;99597.69;5047265;28;20025;-59
2023/07/29 00:05:32;;;;;;;2.13;1.50;;;;;;;14.78;81.84;99601.91;5047193;28;20030;-59
2023/07/29 00:07:57;;;;;;;1.88;1.40;;;;;;;14.79;81.95;99598.41;5047647;28;20026;-57
2023/07/29 00:10:22;;;;;;;2.67;1.40;;;;;;;14.83;81.66;99593.94;5047399;28;20053;-59
2023/07/29 00:12:48;;;;;;;3.22;1.75;;;;;;;14.86;81.40;99591.19;5047168;28;20029;-59
2023/07/29 00:15:13;;;;;;;2.17;1.55;;;;;;;14.87;81.75;99593.75;5047466;28;20050;-59
2023/07/29 00:17:39;;;;;;;2.40;1.83;;;;;;;14.86;81.70;99594.66;5047299;28;20113;-59
2023/07/29 00:20:06;;;;;;;2.25;1.60;;;;;;;14.95;81.82;99601.28;5047326;28;20059;-59
2023/07/29 00:22:31;;;;;;;2.75;1.77;;;;;;;14.99;81.68;99599.41;5047064;28;20477;-59
2023/07/29 00:24:57;;;;;;;2.15;1.63;;;;;;;14.98;81.77;99598.53;5047092;28;20037;-59
2023/07/29 00:27:23;;;;;;;2.42;1.52;;;;;;;15.01;81.75;99600.22;5047180;28;20031;-59
2023/07/29 00:29:49;;;;;;;1.42;1.30;;;;;;;15.00;81.58;99593.25;5046985;28;20103;-57
2023/07/29 00:32:14;;;;;;;2.17;1.60;;;;;;;14.99;81.41;99596.78;5046985;28;20025;-60
2023/07/29 00:34:40;;;;;;;2.25;1.50;;;;;;;14.96;81.37;99591.69;5046986;28;20028;-60
2023/07/29 00:37:05;;;;;;;2.72;1.55;;;;;;;14.94;81.32;99593.50;5046987;28;20028;-59
2023/07/29 00:39:32;;;;;;;2.80;1.83;;;;;;;14.89;81.43;99593.69;5046985;28;20053;-59
2023/07/29 00:41:57;;;;;;;2.17;1.73;;;;;;;14.86;81.56;99593.81;5046812;28;20021;-59
2023/07/29 00:44:23;;;;;;;1.58;1.25;;;;;;;14.81;81.23;99586.16;5046490;28;20087;-59
2023/07/29 00:46:51;;;;;;;2.88;1.55;;;;;;;14.81;81.22;99591.38;5046361;28;20017;-59
2023/07/29 00:49:17;;;;;;;3.17;1.20;;;;;;;14.80;81.09;99589.69;5046110;28;20036;-58
2023/07/29 00:51:42;;;;;;;3.28;1.80;;;;;;;14.80;81.25;99589.69;5046685;28;20037;-58
2023/07/29 00:54:08;;;;;;;3.13;1.73;;;;;;;14.73;81.75;99589.03;5046661;28;20053;-57
2023/07/29 00:56:33;;;;;;;3.72;1.70;;;;;;;14.60;82.55;99583.44;5046341;28;20494;-59
2023/07/29 00:59:01;;;;;;;2.72;1.70;;;;;;;14.46;83.52;99575.28;5046427;28;20103;-56
2023/07/29 01:01:28;;;;;;;2.00;1.38;;;;;;;14.40;84.00;99575.50;5046491;28;20032;-59
2023/07/29 01:03:53;;;;;;;7.88;1.60;;;;;;;14.31;84.28;99567.13;5046579;28;20025;-57
2023/07/29 01:06:40;;;;;;;3.55;1.67;;;;;;;14.30;84.60;99577.59;5046402;28;20037;-58
2023/07/29 01:09:34;;;;;;;2.00;1.60;;;;;;;14.25;84.70;99576.03;5045990;28;20052;-58
2023/07/29 01:12:09;;;;;;;3.38;1.90;;;;;;;14.23;84.81;99579.63;5034869;28;20049;-58
2023/07/29 01:14:44;;;;;;;6.43;2.00;;;;;;;14.19;85.38;99567.56;5045895;28;20049;-57
2023/07/29 01:17:15;;;;;;;4.25;2.72;;;;;;;14.16;85.55;99562.47;5046154;28;20029;-56
2023/07/29 01:20:01;;;;;;;3.70;1.80;;;;;;;14.12;86.20;99566.97;5046017;28;20418;-58
2023/07/29 01:22:27;;;;;;;4.53;1.63;;;;;;;14.05;86.47;99566.34;5046032;28;20091;-58
2023/07/29 01:24:53;;;;;;;2.13;1.92;;;;;;;14.03;86.54;99562.91;5045816;28;20112;-59
2023/07/29 01:27:18;;;;;;;3.13;1.70;;;;;;;14.03;86.73;99562.91;5045690;28;20021;-60
2023/07/29 01:29:43;;;;;;;1.92;1.48;;;;;;;14.01;86.35;99559.50;5045796;28;20028;-58
2023/07/29 01:32:23;;;;;;;4.57;2.28;;;;;;;14.03;86.53;99562.91;5045833;28;20443;-59
2023/07/29 01:35:16;;;;;;;3.28;1.75;;;;;;;14.03;86.79;99559.44;5045580;28;20049;-59
2023/07/29 01:37:44;;;;;;;2.85;1.85;;;;;;;13.98;86.77;99549.19;5045722;28;20032;-59
2023/07/29 01:40:10;;;;;;;2.25;1.65;;;;;;;14.00;86.59;99557.81;5045825;28;20033;-59
2023/07/29 01:42:36;;;;;;;2.05;1.50;;;;;;;14.02;86.79;99553.41;5045739;28;20029;-58
2023/07/29 01:45:02;;;;;;;3.47;1.90;;;;;;;14.02;86.84;99550.78;5045581;28;20088;-58
2023/07/29 01:47:28;;;;;;;2.67;1.95;;;;;;;14.02;86.63;99553.41;5045282;28;20028;-57
2023/07/29 01:49:53;;;;;;;8.70;1.75;;;;;;;14.00;86.80;99557.81;5045539;28;20051;-60
2023/07/29 01:52:18;;;;;;;3.92;1.95;;;;;;;13.99;86.45;99551.72;5045775;28;20053;-57
2023/07/29 01:54:44;;;;;;;2.70;1.40;;;;;;;13.97;86.70;99542.28;5045514;28;20029;-58
2023/07/29 01:57:09;;;;;;;1.73;1.40;;;;;;;13.97;86.45;99550.09;5045489;28;20071;-57
2023/07/29 01:59:34;;;;;;;2.00;1.63;;;;;;;13.93;86.78;99543.31;5045463;28;20474;-57
2023/07/29 02:02:00;;;;;;;3.80;2.15;;;;;;;13.92;86.87;99538.97;5045769;28;20029;-58
2023/07/29 02:04:25;;;;;;;3.38;1.38;;;;;;;13.90;87.00;99535.59;5045543;28;20029;-58
2023/07/29 02:06:51;;;;;;;2.88;1.95;;;;;;;13.88;86.82;99533.03;5045383;28;20028;-56
2023/07/29 02:09:16;;;;;;;1.88;1.50;;;;;;;13.90;86.69;99532.97;5045644;28;20025;-58
2023/07/29 02:11:41;;;;;;;2.85;2.13;;;;;;;13.90;86.44;99527.75;5045390;28;20029;-58
2023/07/29 02:14:07;;;;;;;2.05;1.70;;;;;;;13.92;86.57;99528.53;5045188;28;20069;-59
2023/07/29 02:16:34;;;;;;;2.75;1.70;;;;;;;13.94;86.74;99530.19;5045364;28;20091;-58
2023/07/29 02:18:59;;;;;;;2.60;1.73;;;;;;;13.93;87.01;99530.25;5045385;28;20021;-58
2023/07/29 02:21:25;;;;;;;1.90;1.15;;;;;;;13.78;87.67;99535.13;5045405;28;20075;-58
2023/07/29 02:23:50;;;;;;;2.35;1.58;;;;;;;13.68;88.80;99528.50;5045290;28;20029;-59
2023/07/29 02:26:16;;;;;;;3.42;1.77;;;;;;;13.65;89.61;99529.47;5045389;28;20044;-57
2023/07/29 02:28:42;;;;;;;4.00;2.10;;;;;;;13.63;90.18;99523.47;5045195;28;20129;-58
2023/07/29 02:31:22;;;;;;;3.15;2.05;;;;;;;13.63;90.73;99532.16;5045204;28;20049;-58
2023/07/29 02:33:48;;;;;;;4.07;2.05;;;;;;;13.63;91.19;99524.31;5045349;28;20021;-58
2023/07/29 02:36:14;;;;;;;3.40;2.10;;;;;;;13.67;91.63;99513.78;5045296;28;20386;-57
2023/07/29 02:38:40;;;;;;;3.53;1.70;;;;;;;13.70;91.94;99511.91;5045302;28;20022;-60
2023/07/29 02:41:06;;;;;;;3.35;1.77;;;;;;;13.77;92.13;99520.34;5045438;28;20590;-56
2023/07/29 02:43:31;;;;;;;4.07;1.65;;;;;;;13.79;91.97;99523.75;5045089;28;20088;-59
2023/07/29 02:45:57;;;;;;;4.03;2.10;;;;;;;13.78;91.94;99523.81;5045192;28;20044;-58
2023/07/29 02:48:22;;;;;;;2.15;1.55;;;;;;;13.73;92.09;99516.16;5045113;28;20030;-58
2023/07/29 02:50:48;;;;;;;2.30;1.50;;;;;;;13.69;92.16;99512.81;5045222;28;20093;-58
2023/07/29 02:53:13;;;;;;;1.95;1.52;;;;;;;13.67;92.00;99508.56;5045126;28;20026;-58
2023/07/29 02:55:41;;;;;;;3.45;1.85;;;;;;;13.61;92.48;99510.47;5045112;28;20025;-56
2023/07/29 02:58:07;;;;;;;2.20;1.38;;;;;;;13.59;92.67;99511.44;5044940;28;20080;-58
2023/07/29 03:00:33;;;;;;;2.47;1.70;;;;;;;13.58;93.49;99509.72;5045215;28;20033;-59
2023/07/29 03:02:59;;;;;;;1.90;1.55;;;;;;;13.58;93.53;99509.72;5044994;28;20026;-58
2023/07/29 03:05:24;;;;;;;4.90;2.25;;;;;;;13.58;94.14;99521.03;5045117;28;20026;-60
2023/07/29 03:07:50;;;;;;;3.63;1.98;;;;;;;13.60;94.00;99511.38;5045267;28;20021;-55
2023/07/29 03:10:15;;;;;;;2.85;1.58;;;;;;;13.69;94.25;99506.75;5045173;28;20533;-58
2023/07/29 03:12:41;;;;;;;4.20;1.75;;;;;;;13.78;93.94;99508.16;5047063;28;20524;-58
2023/07/29 03:15:06;;;;;;;2.28;1.80;;;;;;;13.80;93.80;99509.81;5048322;28;20080;-58
2023/07/29 03:17:32;;;;;;;2.83;1.55;;;;;;;13.81;93.24;99506.31;5048662;28;20420;-59
2023/07/29 03:19:57;;;;;;;2.85;2.05;;;;;;;13.84;93.34;99510.56;5048579;28;20028;-57
2023/07/29 03:22:23;;;;;;;3.85;2.10;;;;;;;13.89;93.01;99503.41;5030641;28;20044;-56
2023/07/29 03:24:48;;;;;;;1.90;1.70;;;;;;;13.92;93.31;99499.84;5048252;28;20036;-56
2023/07/29 03:27:15;;;;;;;4.75;2.65;;;;;;;13.95;93.32;99504.94;5048523;28;20529;-60
2023/07/29 03:29:41;;;;;;;4.07;2.08;;;;;;;14.06;93.06;99494.94;5048295;28;20028;-56
2023/07/29 03:32:07;;;;;;;3.25;2.08;;;;;;;14.19;93.40;99504.91;5048285;28;20025;-58
2023/07/29 03:34:32;;;;;;;2.03;1.83;;;;;;;14.27;92.51;99500.25;5048180;28;20029;-59
2023/07/29 03:36:59;;;;;;;1.95;1.77;;;;;;;14.25;91.84;99499.47;5048222;28;20021;-58
2023/07/29 03:39:24;;;;;;;6.07;1.73;;;;;;;14.22;91.49;99502.19;5048251;28;20554;-58
2023/07/29 03:41:50;;;;;;;4.47;1.63;;;;;;;14.21;91.56;99490.06;5048230;28;20516;-57
2023/07/29 03:44:15;;;;;;;3.28;1.80;;;;;;;14.17;91.07;99489.31;5048059;28;20021;-57
2023/07/29 03:46:40;;;;;;;1.95;1.42;;;;;;;14.15;91.20;99490.31;5048052;28;20027;-58
2023/07/29 03:49:06;;;;;;;4.13;2.25;;;;;;;14.15;91.09;99488.56;5047982;28;20079;-60
2023/07/29 03:51:31;;;;;;;4.47;1.50;;;;;;;14.10;90.73;99496.56;5048032;28;20025;-58
2023/07/29 03:53:57;;;;;;;2.15;1.48;;;;;;;14.08;90.53;99493.16;5047823;28;20030;-59
2023/07/29 03:56:22;;;;;;;5.00;1.40;;;;;;;14.07;90.32;99494.06;5047782;28;20037;-59
2023/07/29 03:58:49;;;;;;;3.75;1.63;;;;;;;14.03;90.68;99496.81;5047726;28;20089;-59
2023/07/29 04:01:14;;;;;;;3.53;1.80;;;;;;;13.96;90.69;99491.00;5047782;28;20021;-59
2023/07/29 04:03:40;;;;;;;2.42;1.73;;;;;;;13.95;90.35;99497.09;5047886;28;20025;-60
2023/07/29 04:06:05;;;;;;;2.25;1.48;;;;;;;13.93;90.40;99493.72;5047599;28;20378;-58
2023/07/29 04:08:31;;;;;;;4.25;1.77;;;;;;;13.90;90.77;99486.84;5047585;28;20100;-55
2023/07/29 04:10:56;;;;;;;4.28;1.42;;;;;;;13.91;90.43;99490.31;5047587;28;20032;-58
2023/07/29 04:13:22;;;;;;;2.30;1.55;;;;;;;13.95;91.12;99490.13;5047278;28;20057;-60
2023/07/29 04:15:47;;;;;;;2.75;1.90;;;;;;;14.00;90.80;99482.13;5047453;28;20045;-56
2023/07/29 04:18:13;;;;;;;4.72;1.95;;;;;;;14.06;90.79;99474.06;5047427;28;20029;-56
2023/07/29 04:20:38;;;;;;;2.38;1.23;;;;;;;14.08;90.26;99485.31;5047411;28;20032;-59
2023/07/29 04:23:04;;;;;;;2.60;1.77;;;;;;;14.06;90.39;99479.28;5046548;28;20021;-56
2023/07/29 04:25:29;;;;;;;2.75;1.98;;;;;;;14.06;90.59;99478.44;5046862;28;20049;-59
2023/07/29 04:27:55;;;;;;;3.28;2.05;;;;;;;14.06;90.55;99479.28;5047214;28;20029;-58
2023/07/29 04:30:20;;;;;;;2.50;1.92;;;;;;;14.11;90.52;99477.38;5047197;28;20477;-58
2023/07/29 04:32:48;;;;;;;2.38;1.75;;;;;;;14.19;90.08;99476.22;5047318;28;20025;-55
2023/07/29 04:35:14;;;;;;;3.13;1.65;;;;;;;14.40;90.60;99481.50;5046712;28;20478;-59
2023/07/29 04:37:40;;;;;;;4.70;2.05;;;;;;;14.46;89.58;99481.25;5047182;28;20030;-55
2023/07/29 04:40:06;;;;;;;3.88;1.77;;;;;;;14.48;89.54;99482.06;5046935;28;20091;-57
2023/07/29 04:42:32;;;;;;;2.60;1.48;;;;;;;14.50;89.30;99485.47;5029120;28;20017;-57
2023/07/29 04:44:57;;;;;;;2.88;1.73;;;;;;;14.55;89.46;99478.31;5046753;28;20116;-58
2023/07/29 04:47:23;;;;;;;2.03;1.75;;;;;;;14.54;89.21;99479.19;5046864;28;20028;-58
2023/07/29 04:49:48;;;;;;;2.13;1.58;;;;;;;14.60;88.63;99485.97;5046872;28;20489;-58
2023/07/29 04:52:14;;;;;;;2.97;1.48;;;;;;;14.60;88.30;99489.41;5046778;28;20021;-55
2023/07/29 04:54:40;;;;;;;3.90;2.08;;;;;;;14.55;88.34;99469.63;5046561;28;20056;-58
2023/07/29 04:57:06;;;;;;;2.88;1.80;;;;;;;14.60;88.07;99478.97;5046456;28;20026;-57
2023/07/29 04:59:32;;;;;;;3.90;2.22;;;;;;;14.50;87.87;99468.03;5046445;28;20021;-58
2023/07/29 05:01:57;;;;;;;3.22;2.28;;;;;;;14.63;88.23;99486.66;5046624;28;20025;-59
2023/07/29 05:04:23;;;;;;;3.03;1.75;;;;;;;14.83;88.79;99490.28;5046377;28;20025;-59
2023/07/29 05:06:49;;;;;;;3.50;2.35;;;;;;;15.03;88.39;99487.75;5046424;28;20072;-59
2023/07/29 05:09:17;;;;;;;5.40;2.55;;;;;;;15.12;87.79;99484.75;5046487;28;20056;-58
2023/07/29 05:11:45;;;;;;;3.10;1.88;;;;;;;15.16;86.85;99485.47;5046256;28;20029;-58
2023/07/29 05:14:11;;;;;;;4.43;1.52;;;;;;;15.21;86.05;99480.88;5045998;28;20053;-57
2023/07/29 05:16:36;;;;;;;1.77;1.50;;;;;;;15.33;85.64;99477.75;5046289;28;20032;-57
2023/07/29 05:19:02;;;;;;;5.18;2.15;;;;;;;15.44;85.06;99479.91;5046155;28;20437;-56
2023/07/29 05:21:27;;;;;;;3.17;1.90;;;;;;;15.57;83.85;99474.13;5046244;28;20025;-59
2023/07/29 05:23:52;;;;;;;2.97;2.08;;;;;;;15.76;83.70;99481.16;5046038;28;20394;-57
2023/07/29 05:26:18;;;;;;;3.58;1.90;;;;;;;16.02;83.05;99484.38;5046148;28;20028;-56
2023/07/29 05:28:43;;;;;;;6.60;2.05;;;;;;;16.10;81.19;99485.72;5045700;28;20021;-58
2023/07/29 05:31:09;;;;;;;6.00;1.85;;;;;;;16.14;81.57;99482.94;5045834;28;20025;-58
2023/07/29 05:33:36;;;;;;;1.13;1.02;;;;;;;16.33;81.27;99473.31;5028075;28;20032;-58
2023/07/29 05:36:01;;;;;;;2.10;1.40;;;;;;;16.57;80.76;99478.31;5045461;28;20017;-56
2023/07/29 05:38:27;;;;;;;2.45;1.83;;;;;;;16.70;79.44;99472.47;5045872;28;20051;-59
2023/07/29 05:40:52;;;;;;;8.43;2.00;;;;;;;16.69;77.95;99468.97;5045806;28;20052;-59
2023/07/29 05:43:17;;;;;;;2.20;1.65;;;;;;;16.55;77.22;99482.75;5045779;28;20026;-57
2023/07/29 05:45:43;;;;;;;2.80;1.92;;;;;;;16.43;76.71;99478.97;5045897;28;20422;-57
2023/07/29 05:48:08;;;;;;;2.97;1.85;;;;;;;16.27;76.20;99475.38;5045625;28;20084;-59
2023/07/29 05:50:33;;;;;;;2.40;1.70;;;;;;;16.16;76.24;99479.38;5045758;28;20017;-58
2023/07/29 05:52:59;;;;;;;3.78;1.70;;;;;;;16.09;76.18;99478.78;5045703;28;20021;-58
2023/07/29 05:55:25;;;;;;;1.38;1.13;;;;;;;15.98;76.32;99478.44;5045699;28;20075;-57
2023/07/29 05:57:50;;;;;;;1.02;0.95;;;;;;;15.95;76.21;99473.31;5045603;28;20021;-59
2023/07/29 06:00:16;;;;;;;1.88;1.25;;;;;;;15.94;75.61;99471.63;5045403;28;20043;-58
2023/07/29 06:02:41;;;;;;;2.40;1.70;;;;;;;15.89;75.75;99471.84;5045488;28;20056;-57
2023/07/29 06:05:07;;;;;;;2.40;1.42;;;;;;;15.91;76.26;99471.75;5045349;28;20029;-57
2023/07/29 06:07:33;;;;;;;3.63;1.40;;;;;;;15.99;76.04;99469.66;5045747;28;20101;-58
2023/07/29 06:09:59;;;;;;;2.45;1.38;;;;;;;16.08;75.99;99460.53;5045718;28;20103;-58
2023/07/29 06:12:25;;;;;;;3.75;1.27;;;;;;;16.25;74.68;99467.59;5045478;28;20025;-58
2023/07/29 06:14:50;;;;;;;1.88;1.38;;;;;;;16.25;75.23;99464.13;5045140;28;20131;-59
2023/07/29 06:17:15;;;;;;;1.90;1.30;;;;;;;16.41;75.03;99461.63;5045439;28;20059;-59
2023/07/29 06:19:41;;;;;;;2.72;1.58;;;;;;;16.53;74.91;99461.03;5045588;28;20029;-59
2023/07/29 06:22:06;;;;;;;3.47;1.38;;;;;;;16.58;74.35;99453.78;5045457;28;20032;-57
2023/07/29 06:24:32;;;;;;;1.92;1.25;;;;;;;16.70;73.64;99448.88;5045329;28;20028;-57
2023/07/29 06:26:58;;;;;;;4.32;1.73;;;;;;;16.77;73.41;99457.28;5045615;28;20026;-57
2023/07/29 06:29:23;;;;;;;5.72;1.30;;;;;;;16.85;73.01;99455.13;5045270;28;20030;-59
2023/07/29 06:31:49;;;;;;;3.17;1.60;;;;;;;16.94;72.16;99457.28;5045350;28;20078;-57
2023/07/29 06:34:14;;;;;;;2.08;1.25;;;;;;;16.96;72.84;99458.03;5045342;28;20028;-55
2023/07/29 06:36:39;;;;;;;1.90;1.50;;;;;;;17.01;72.51;99449.97;5045462;28;20030;-58
2023/07/29 06:39:05;;;;;;;2.58;1.40;;;;;;;17.16;71.15;99458.00;5045376;28;20093;-59
2023/07/29 06:41:30;;;;;;;1.60;1.20;;;;;;;17.13;70.79;99460.78;5045217;28;20080;-58
2023/07/29 06:43:56;;;;;;;1.95;1.73;;;;;;;17.09;70.37;99447.81;5027532;28;20036;-59
2023/07/29 06:46:21;;;;;;;2.83;1.70;;;;;;;17.13;70.97;99452.91;5045266;28;20049;-59
2023/07/29 06:48:47;;;;;;;5.57;1.42;;;;;;;17.20;71.28;99462.16;5049183;28;20040;-59
2023/07/29 06:51:12;;;;;;;2.58;1.67;;;;;;;17.40;70.31;99452.41;5049183;28;20041;-59
2023/07/29 06:53:38;;;;;;;2.35;1.40;;;;;;;17.39;69.75;99448.94;5049063;28;20018;-58
2023/07/29 06:56:04;;;;;;;1.25;1.00;;;;;;;17.42;69.61;99453.19;5048876;28;20492;-57
2023/07/29 06:58:30;;;;;;;2.45;1.10;;;;;;;17.43;69.62;99447.84;5048854;28;20033;-55
2023/07/29 07:00:55;;;;;;;1.58;1.10;;;;;;;17.43;69.68;99450.47;5048871;28;20022;-58
2023/07/29 07:03:20;;;;;;;5.75;1.30;;;;;;;17.41;69.91;99446.25;5048805;28;20048;-57
2023/07/29 07:05:46;;;;;;;2.42;1.52;;;;;;;17.43;68.84;99447.00;5048659;28;20025;-57
2023/07/29 07:08:11;;;;;;;1.63;1.33;;;;;;;17.32;69.31;99444.94;5048724;28;20052;-59
2023/07/29 07:10:37;;;;;;;2.05;1.35;;;;;;;17.25;69.50;99447.06;5048584;28;20032;-58
2023/07/29 07:13:02;;;;;;;3.05;1.45;;;;;;;17.19;70.21;99442.09;5048476;28;20036;-58
2023/07/29 07:15:27;;;;;;;4.05;1.50;;;;;;;17.25;70.25;99448.81;5048304;28;20018;-59
2023/07/29 07:17:53;;;;;;;1.60;1.30;;;;;;;17.29;70.38;99448.56;5048536;28;20099;-58
2023/07/29 07:20:18;;;;;;;1.92;1.55;;;;;;;17.32;69.61;99444.94;5048419;28;20473;-57
2023/07/29 07:22:44;;;;;;;2.30;1.33;;;;;;;17.38;69.60;99443.78;5048470;28;20104;-59
2023/07/29 07:25:09;;;;;;;3.13;1.88;;;;;;;17.33;70.24;99452.72;5048618;28;20021;-58
2023/07/29 07:27:36;;;;;;;2.95;1.38;;;;;;;17.43;70.11;99441.75;5048339;28;20097;-58
2023/07/29 07:30:02;;;;;;;3.40;2.03;;;;;;;17.48;69.83;99438.91;5048242;28;20477;-59
2023/07/29 07:32:27;;;;;;;3.08;1.75;;;;;;;17.50;68.92;99445.75;5030445;28;20065;-59
2023/07/29 07:34:53;;;;;;;2.08;1.38;;;;;;;17.50;69.07;99448.38;5048266;28;20066;-58
2023/07/29 07:37:18;;;;;;;2.25;1.73;;;;;;;17.43;69.48;99433.88;5047993;28;20032;-58
2023/07/29 07:39:44;;;;;;;3.85;1.48;;;;;;;17.64;69.05;99444.16;5047874;28;20466;-60
2023/07/29 07:42:09;;;;;;;4.43;1.65;;;;;;;17.59;68.91;99447.88;5047960;28;20026;-60
2023/07/29 07:44:35;;;;;;;2.67;1.73;;;;;;;17.68;68.51;99445.69;5047648;28;20024;-61
2023/07/29 07:47:00;;;;;;;4.15;1.33;;;;;;;17.71;69.28;99442.91;5047915;28;20021;-61
2023/07/29 07:49:25;;;;;;;3.42;1.63;;;;;;;17.90;68.75;99434.88;5047781;28;20048;-61
2023/07/29 07:51:51;;;;;;;3.55;1.77;;;;;;;17.94;68.14;99435.53;5048026;28;20025;-60
2023/07/29 07:54:16;;;;;;;2.80;1.40;;;;;;;18.03;67.00;99429.81;5047773;28;20092;-59
2023/07/29 07:56:42;;;;;;;2.90;1.63;;;;;;;17.92;67.35;99429.56;5047690;28;20026;-60
2023/07/29 07:59:08;;;;;;;6.20;1.35;;;;;;;17.88;67.62;99421.00;5047244;28;20021;-61
2023/07/29 08:01:38;;;;;;;1.65;1.25;;;;;;;18.01;67.83;99433.44;5047434;28;20035;-60
2023/07/29 08:04:04;;;;;;;4.60;1.60;;;;;;;18.05;68.48;99429.72;5047396;28;20102;-59
2023/07/29 08:06:30;;;;;;;1.75;1.23;;;;;;;18.19;68.42;99432.47;5047518;28;20053;-60
2023/07/29 08:08:56;;;;;;;2.70;1.15;;;;;;;18.33;67.41;99425.56;5047517;28;20036;-59
2023/07/29 08:11:21;;;;;;;2.25;0.98;;;;;;;18.38;67.05;99417.41;5047539;28;20106;-60
2023/07/29 08:13:47;;;;;;;3.83;1.73;;;;;;;18.26;67.69;99430.31;5047200;28;20056;-60
2023/07/29 08:16:13;;;;;;;2.35;1.48;;;;;;;18.32;67.40;99414.19;5046005;28;20031;-60
2023/07/29 08:18:38;;;;;;;2.95;1.88;;;;;;;18.29;67.84;99414.38;5045962;28;20025;-60
2023/07/29 08:21:04;;;;;;;2.85;1.90;;;;;;;18.45;67.72;99419.59;5047463;28;20017;-60
2023/07/29 08:23:31;;;;;;;1.55;1.02;;;;;;;18.56;67.12;99416.34;5047093;28;20041;-61
2023/07/29 08:26:02;;;;;;;2.88;1.48;;;;;;;18.47;68.01;99422.16;5047045;28;20014;-60
2023/07/29 08:28:33;;;;;;;2.33;1.55;;;;;;;18.57;67.44;99418.06;5046956;28;20085;-59
2023/07/29 08:30:58;;;;;;;5.57;1.73;;;;;;;18.50;67.78;99416.72;5046596;28;20462;-60
2023/07/29 08:33:24;;;;;;;3.45;1.65;;;;;;;18.43;68.11;99418.00;5047218;28;20048;-60
2023/07/29 08:35:49;;;;;;;1.45;1.10;;;;;;;18.38;68.46;99406.91;5045708;28;20477;-61
2023/07/29 08:38:15;;;;;;;2.97;1.92;;;;;;;18.25;68.84;99410.25;5047146;28;20025;-59
2023/07/29 08:41:09;;;;;;;2.45;1.65;;;;;;;18.23;69.28;99414.72;5046983;28;20032;-59
2023/07/29 08:43:38;;;;;;;3.35;1.65;;;;;;;18.21;69.97;99416.63;5035360;28;20037;-60
2023/07/29 08:46:03;;;;;;;3.13;1.83;;;;;;;18.35;68.98;99420.22;5046877;28;20064;-60
2023/07/29 08:48:42;;;;;;;3.50;1.27;;;;;;;18.26;69.38;99425.06;5046832;28;20021;-60
2023/07/29 08:51:12;;;;;;;2.38;1.83;;;;;;;18.22;70.05;99418.31;5046639;28;20017;-59
2023/07/29 08:53:38;;;;;;;1.92;1.30;;;;;;;18.41;69.44;99417.25;5046669;28;20029;-59
2023/07/29 08:56:05;;;;;;;5.22;1.63;;;;;;;18.39;69.77;99417.34;5046567;28;20279;-59
2023/07/29 08:58:31;;;;;;;2.50;1.52;;;;;;;18.53;69.15;99421.78;5046453;28;20025;-61
2023/07/29 09:00:56;;;;;;;2.80;1.50;;;;;;;18.47;69.49;99416.06;5046654;28;20032;-60
2023/07/29 09:03:22;;;;;;;8.00;1.63;;;;;;;18.59;68.02;99428.50;5046425;28;20022;-59
2023/07/29 09:05:48;;;;;;;1.38;1.10;;;;;;;18.39;68.96;99421.72;5046455;28;20026;-59
2023/07/29 09:08:14;;;;;;;2.90;1.98;;;;;;;18.18;69.87;99422.88;5046443;28;20029;-60
2023/07/29 09:10:39;;;;;;;2.40;1.58;;;;;;;18.13;69.96;99418.81;5045879;28;20025;-60
2023/07/29 09:13:05;;;;;;;5.32;2.03;;;;;;;18.13;70.46;99413.56;5045561;28;20029;-59
2023/07/29 09:15:33;;;;;;;3.28;1.67;;;;;;;18.23;70.77;99419.16;5045195;28;20029;-58
2023/07/29 09:17:59;;;;;;;2.17;1.77;;;;;;;18.30;70.77;99412.59;5045964;28;20037;-60
2023/07/29 09:20:26;;;;;;;3.45;1.75;;;;;;;18.51;70.48;99414.94;5045606;28;20060;-61
2023/07/29 09:22:53;;;;;;;4.38;2.03;;;;;;;18.62;70.54;99415.16;5045873;28;20076;-61
2023/07/29 09:25:30;;;;;;;2.05;1.48;;;;;;;18.74;69.71;99421.47;5045781;28;20390;-61
2023/07/29 09:28:00;;;;;;;1.67;1.48;;;;;;;18.69;69.77;99421.75;5045352;28;20017;-60
2023/07/29 09:30:26;;;;;;;2.75;1.58;;;;;;;18.69;70.02;99413.03;5045617;28;20033;-61
2023/07/29 09:32:56;;;;;;;2.40;1.60;;;;;;;18.68;70.44;99412.19;5045604;28;20385;-61
2023/07/29 09:35:21;;;;;;;5.53;1.92;;;;;;;18.70;70.54;99412.09;5045630;28;20030;-61
2023/07/29 09:37:47;;;;;;;5.28;2.30;;;;;;;18.63;71.50;99410.75;5045192;28;20107;-61
2023/07/29 09:40:18;;;;;;;2.90;1.98;;;;;;;18.75;72.15;99419.72;5027665;28;20040;-61
2023/07/29 09:42:54;;;;;;;4.28;2.22;;;;;;;19.05;72.11;99398.63;5045450;28;20029;-60
2023/07/29 09:45:23;;;;;;;4.53;2.15;;;;;;;19.50;71.41;99397.72;5045363;28;20052;-60
2023/07/29 09:47:49;;;;;;;5.00;2.10;;;;;;;20.22;70.15;99395.91;5045334;28;20018;-61
2023/07/29 09:50:14;;;;;;;1.80;1.52;;;;;;;20.57;67.73;99407.69;5045247;28;20158;-61
2023/07/29 09:52:41;;;;;;;4.38;2.05;;;;;;;20.52;67.27;99412.41;5045207;28;20033;-62
2023/07/29 09:55:07;;;;;;;2.67;1.80;;;;;;;20.47;67.72;99406.59;5044655;28;20109;-62
2023/07/29 09:57:32;;;;;;;3.80;2.03;;;;;;;20.54;67.24;99410.53;5045002;28;20478;-61
2023/07/29 09:59:58;;;;;;;3.67;2.03;;;;;;;20.76;67.16;99409.09;5044970;28;20021;-61
2023/07/29 10:02:25;;;;;;;1.95;1.42;;;;;;;21.02;65.78;99402.06;5044643;28;20067;-61
2023/07/29 10:04:52;;;;;;;4.03;1.90;;;;;;;20.82;64.94;99387.56;5044836;28;20037;-61
2023/07/29 10:07:19;;;;;;;3.42;2.20;;;;;;;20.63;65.47;99401.16;5045173;28;20143;-61
2023/07/29 10:09:45;;;;;;;1.83;1.48;;;;;;;20.45;67.04;99401.44;5045231;28;20022;-61
2023/07/29 10:12:11;;;;;;;2.08;1.38;;;;;;;20.55;67.16;99402.53;5045033;28;20398;-61
2023/07/29 10:14:38;;;;;;;1.80;1.40;;;;;;;20.62;66.11;99404.75;5044991;28;20049;-61
2023/07/29 10:17:05;;;;;;;2.67;1.75;;;;;;;20.45;66.18;99396.16;5044859;28;20037;-60
2023/07/29 10:19:31;;;;;;;3.95;1.70;;;;;;;20.19;66.82;99398.72;5044969;28;20355;-60
2023/07/29 10:22:01;;;;;;;3.30;1.38;;;;;;;20.02;67.52;99397.13;5045757;28;20037;-61
2023/07/29 10:24:30;;;;;;;5.55;1.48;;;;;;;20.02;67.97;99397.13;5048844;28;20021;-62
2023/07/29 10:26:59;;;;;;;2.10;1.45;;;;;;;20.00;67.81;99401.69;5049397;28;20025;-61
2023/07/29 10:29:32;;;;;;;1.50;1.10;;;;;;;19.97;68.37;99407.16;5048827;28;20029;-61
2023/07/29 10:31:58;;;;;;;3.45;1.60;;;;;;;19.97;68.21;99402.69;5048954;28;20030;-62
2023/07/29 10:34:25;;;;;;;1.75;1.35;;;;;;;20.07;68.43;99400.34;5049043;28;20041;-61
2023/07/29 10:36:51;;;;;;;5.40;1.50;;;;;;;20.26;68.85;99386.84;5048875;28;20049;-60
2023/07/29 10:39:17;;;;;;;3.58;1.63;;;;;;;20.76;69.04;99394.13;5031387;28;20029;-61
2023/07/29 10:42:02;;;;;;;2.85;1.42;;;;;;;21.74;67.60;99396.28;5048823;28;20104;-60
2023/07/29 10:44:40;;;;;;;3.63;1.65;;;;;;;21.91;66.36;99395.09;5048586;28;20432;-60
2023/07/29 10:47:14;;;;;;;5.65;1.98;;;;;;;21.84;65.06;99404.44;5049037;28;20099;-60
2023/07/29 10:49:45;;;;;;;4.00;2.40;;;;;;;21.24;64.64;99397.09;5048826;28;20036;-61
2023/07/29 10:52:15;;;;;;;3.75;2.60;;;;;;;20.64;66.38;99406.31;5048622;28;20025;-61
2023/07/29 10:54:46;;;;;;;2.50;1.95;;;;;;;20.18;67.89;99400.50;5048775;28;20018;-61
2023/07/29 10:57:15;;;;;;;3.15;2.05;;;;;;;19.90;69.83;99396.16;5048557;28;20208;-60
2023/07/29 10:59:53;;;;;;;4.28;1.88;;;;;;;19.88;71.32;99398.88;5048673;28;20101;-61
2023/07/29 11:02:19;;;;;;;9.07;3.25;;;;;;;19.90;71.75;99406.69;5048481;28;20030;-60
2023/07/29 11:04:51;;;;;;;5.72;2.58;;;;;;;20.03;71.92;99404.16;5048524;28;20029;-61
2023/07/29 11:07:16;;;;;;;;;;;;;;;20.16;71.72;99412.09;5048719;28;20100;-61
2023/07/29 11:09:48;;;;;;;2.90;2.45;;;;;;;20.21;71.10;99415.28;5048560;28;19920;-61
2023/07/29 11:12:38;;;;;;;3.83;2.55;;;;;;;20.36;70.89;99407.31;5048793;28;20041;-60
2023/07/29 11:15:10;;;;;;;3.42;2.53;;;;;;;20.56;69.90;99408.63;5048419;28;20068;-61
2023/07/29 11:17:36;;;;;;;6.00;3.40;;;;;;;20.76;69.00;99404.66;5048264;28;20031;-61
2023/07/29 11:20:03;;;;;;;3.70;2.15;;;;;;;20.87;66.93;99406.56;5048182;28;20034;-61
2023/07/29 11:22:29;;;;;;;4.07;2.33;;;;;;;20.71;66.06;99408.53;5048304;28;20040;-60
2023/07/29 11:24:55;;;;;;;4.15;2.65;;;;;;;20.59;66.06;99410.22;5047993;28;20026;-61
2023/07/29 11:27:20;;;;;;;3.38;2.28;;;;;;;20.48;65.70;99410.94;5047944;28;20013;-61
2023/07/29 11:29:47;;;;;;;2.83;1.90;;;;;;;20.29;66.28;99409.50;5047928;28;20469;-62
2023/07/29 11:32:12;;;;;;;3.83;1.88;;;;;;;20.13;66.37;99407.00;5047433;28;20033;-61